createdAt,value
2018-06-20T00:00:29.520Z,16.90
2018-06-20T00:03:01.180Z,16.80
2018-06-20T00:05:33.008Z,16.80
2018-06-20T00:08:04.734Z,16.90
2018-06-20T00:13:07.601Z,17.30
2018-06-20T00:23:12.556Z,17.10
2018-06-20T00:25:44.168Z,17.10
2018-06-20T00:31:04.094Z,16.90
2018-06-20T00:33:35.968Z,17.00
2018-06-20T00:36:07.782Z,17.00
2018-06-20T00:38:39.531Z,16.80
2018-06-20T00:41:11.272Z,16.80
2018-06-20T00:43:43.119Z,16.60
2018-06-20T00:46:14.822Z,16.50
2018-06-20T00:48:46.635Z,16.70
2018-06-20T00:51:18.338Z,16.70
2018-06-20T00:53:50.086Z,16.50
2018-06-20T00:56:26.211Z,16.70
2018-06-20T00:58:58.009Z,16.70
2018-06-20T01:01:29.895Z,16.80
2018-06-20T01:06:32.883Z,16.40
2018-06-20T01:09:08.247Z,16.40
2018-06-20T01:11:40.057Z,16.30
2018-06-20T01:14:11.970Z,16.20
2018-06-20T01:16:43.716Z,16.30
2018-06-20T01:19:15.563Z,16.30
2018-06-20T01:21:47.357Z,16.20
2018-06-20T01:24:19.123Z,16.20
2018-06-20T01:26:51.123Z,16.20
2018-06-20T01:29:22.899Z,16.40
2018-06-20T01:31:54.775Z,16.30
2018-06-20T01:36:57.764Z,15.90
2018-06-20T01:39:29.612Z,15.90
2018-06-20T01:42:01.359Z,16.10
2018-06-20T01:44:33.187Z,16.10
2018-06-20T01:47:04.940Z,16.00
2018-06-20T01:49:36.700Z,16.10
2018-06-20T01:52:08.487Z,16.10
2018-06-20T01:54:40.253Z,16.00
2018-06-20T01:57:11.967Z,16.00
2018-06-20T01:59:43.787Z,15.90
2018-06-20T02:02:15.551Z,15.80
2018-06-20T02:04:47.555Z,15.90
2018-06-20T02:07:19.383Z,16.20
2018-06-20T02:09:51.161Z,16.00
2018-06-20T02:12:22.879Z,15.80
2018-06-20T02:14:54.683Z,15.90
2018-06-20T02:17:26.382Z,15.80
2018-06-20T02:19:58.126Z,15.60
2018-06-20T02:22:32.651Z,15.50
2018-06-20T02:25:04.494Z,15.50
2018-06-20T02:27:36.220Z,15.60
2018-06-20T02:30:08.058Z,15.80
2018-06-20T02:35:10.896Z,15.40
2018-06-20T02:37:42.698Z,15.80
2018-06-20T02:40:14.488Z,15.70
2018-06-20T02:42:46.227Z,16.30
2018-06-20T02:47:49.383Z,16.40
2018-06-20T02:50:21.129Z,16.10
2018-06-20T02:52:52.895Z,16.30
2018-06-20T02:55:24.651Z,16.40
2018-06-20T02:57:56.854Z,16.30
2018-06-20T03:00:28.626Z,16.10
2018-06-20T03:03:00.371Z,15.60
2018-06-20T03:05:32.691Z,15.40
2018-06-20T03:08:04.451Z,15.40
2018-06-20T03:13:07.611Z,15.30
2018-06-20T03:15:39.532Z,15.70
2018-06-20T03:18:11.244Z,15.60
2018-06-20T03:20:43.139Z,15.40
2018-06-20T03:23:14.847Z,15.30
2018-06-20T03:25:46.761Z,15.40
2018-06-20T03:28:18.516Z,15.50
2018-06-20T03:30:50.275Z,15.30
2018-06-20T03:33:22.080Z,15.10
2018-06-20T03:35:53.947Z,15.20
2018-06-20T03:38:26.063Z,15.80
2018-06-20T03:40:57.921Z,16.10
2018-06-20T03:43:29.730Z,15.80
2018-06-20T03:46:01.516Z,15.40
2018-06-20T03:48:33.254Z,15.20
2018-06-20T03:51:05.053Z,15.20
2018-06-20T03:53:36.758Z,15.40
2018-06-20T03:56:08.669Z,15.80
2018-06-20T03:58:40.427Z,15.90
2018-06-20T04:01:12.203Z,15.70
2018-06-20T04:03:44.046Z,15.80
2018-06-20T04:06:15.817Z,15.80
2018-06-20T04:08:47.555Z,15.80
2018-06-20T04:11:19.327Z,16.00
2018-06-20T04:13:51.018Z,15.90
2018-06-20T04:16:22.780Z,16.00
2018-06-20T04:21:25.737Z,15.90
2018-06-20T04:23:57.487Z,15.60
2018-06-20T04:26:29.253Z,15.70
2018-06-20T04:29:01.287Z,16.00
2018-06-20T04:31:33.090Z,16.30
2018-06-20T04:34:04.860Z,16.30
2018-06-20T04:39:11.201Z,16.20
2018-06-20T04:41:43.169Z,16.30
2018-06-20T04:44:15.007Z,16.40
2018-06-20T04:46:46.938Z,16.50
2018-06-20T04:49:18.825Z,16.60
2018-06-20T04:51:50.761Z,16.60
2018-06-20T04:54:22.691Z,16.60
2018-06-20T04:56:54.742Z,16.60
2018-06-20T04:59:26.539Z,16.40
2018-06-20T05:01:58.404Z,16.10
2018-06-20T05:04:30.287Z,16.10
2018-06-20T05:07:02.185Z,16.30
2018-06-20T05:09:34.033Z,16.40
2018-06-20T05:12:05.965Z,16.50
2018-06-20T05:14:37.824Z,16.50
2018-06-20T05:17:09.686Z,16.50
2018-06-20T05:19:41.616Z,16.50
2018-06-20T05:22:13.464Z,16.40
2018-06-20T05:24:45.280Z,16.50
2018-06-20T05:27:17.174Z,16.40
2018-06-20T05:29:48.971Z,16.50
2018-06-20T05:32:20.911Z,16.80
2018-06-20T05:34:52.851Z,16.60
2018-06-20T05:37:24.828Z,16.60
2018-06-20T05:39:56.659Z,16.70
2018-06-20T05:42:28.540Z,17.00
2018-06-20T05:45:00.396Z,16.90
2018-06-20T05:47:32.291Z,16.90
2018-06-20T05:50:04.221Z,17.00
2018-06-20T05:52:36.127Z,17.10
2018-06-20T05:55:08.175Z,17.10
2018-06-20T05:57:40.087Z,17.20
2018-06-20T06:00:11.892Z,17.10
2018-06-20T06:02:43.758Z,17.20
2018-06-20T06:05:15.683Z,17.30
2018-06-20T06:07:47.527Z,17.40
2018-06-20T06:10:19.793Z,17.10
2018-06-20T06:12:51.675Z,17.30
2018-06-20T06:15:23.508Z,17.20
2018-06-20T06:17:55.391Z,17.40
2018-06-20T06:20:27.728Z,17.60
2018-06-20T06:22:59.660Z,17.60
2018-06-20T06:25:31.534Z,17.70
2018-06-20T06:28:03.489Z,17.90
2018-06-20T06:30:35.336Z,18.10
2018-06-20T06:33:07.256Z,18.20
2018-06-20T06:35:39.109Z,18.10
2018-06-20T06:38:11.122Z,18.20
2018-06-20T06:40:43.051Z,18.30
2018-06-20T06:43:14.972Z,18.30
2018-06-20T06:45:46.943Z,18.40
2018-06-20T06:48:18.980Z,18.60
2018-06-20T06:50:50.839Z,18.70
2018-06-20T06:53:22.788Z,18.60
2018-06-20T06:55:54.888Z,18.70
2018-06-20T06:58:26.886Z,18.80
2018-06-20T07:00:58.813Z,18.90
2018-06-20T07:03:30.724Z,19.10
2018-06-20T07:06:02.593Z,19.20
2018-06-20T07:08:34.554Z,19.00
2018-06-20T07:11:06.411Z,19.20
2018-06-20T07:13:38.337Z,19.40
2018-06-20T07:16:10.313Z,19.40
2018-06-20T07:18:42.236Z,19.40
2018-06-20T07:21:14.125Z,19.50
2018-06-20T07:23:46.000Z,19.60
2018-06-20T07:26:17.845Z,19.50
2018-06-20T07:28:49.707Z,19.70
2018-06-20T07:31:21.519Z,19.80
2018-06-20T07:33:53.611Z,19.80
2018-06-20T07:36:25.549Z,19.90
2018-06-20T07:38:57.436Z,20.20
2018-06-20T07:41:29.315Z,20.30
2018-06-20T07:44:01.219Z,20.30
2018-06-20T07:46:33.026Z,20.50
2018-06-20T07:49:04.927Z,20.40
2018-06-20T07:51:36.727Z,20.60
2018-06-20T07:54:08.604Z,20.80
2018-06-20T07:56:40.376Z,20.80
2018-06-20T07:59:16.113Z,20.80
2018-06-20T08:03:08.244Z,20.90
2018-06-20T08:05:45.349Z,20.80
2018-06-20T08:08:22.139Z,21.20
2018-06-20T08:10:59.156Z,21.30
2018-06-20T08:13:36.144Z,21.50
2018-06-20T08:16:13.015Z,21.60
2018-06-20T08:21:21.570Z,21.50
2018-06-20T08:23:53.467Z,21.80
2018-06-20T08:26:25.330Z,21.70
2018-06-20T08:28:57.191Z,21.70
2018-06-20T08:31:29.042Z,21.60
2018-06-20T08:34:00.887Z,21.90
2018-06-20T08:36:32.817Z,22.10
2018-06-20T08:39:05.979Z,22.10
2018-06-20T08:41:37.921Z,22.40
2018-06-20T08:44:09.764Z,22.60
2018-06-20T08:46:41.596Z,22.60
2018-06-20T08:49:13.492Z,22.50
2018-06-20T08:51:45.320Z,22.60
2018-06-20T08:56:48.316Z,22.90
2018-06-20T09:01:51.251Z,23.20
2018-06-20T09:04:28.146Z,23.30
2018-06-20T09:07:05.152Z,23.20
2018-06-20T09:09:42.123Z,23.10
2018-06-20T09:12:18.871Z,23.20
2018-06-20T09:14:55.579Z,23.00
2018-06-20T09:17:32.552Z,23.10
2018-06-20T09:20:06.075Z,23.10
2018-06-20T09:22:38.912Z,22.90
2018-06-20T09:25:10.687Z,23.10
2018-06-20T09:27:42.508Z,23.50
2018-06-20T09:30:14.323Z,23.40
2018-06-20T09:32:46.838Z,23.40
2018-06-20T09:35:18.630Z,23.50
2018-06-20T09:37:50.732Z,23.40
2018-06-20T09:40:22.572Z,23.40
2018-06-20T09:42:54.793Z,23.60
2018-06-20T09:45:26.944Z,23.80
2018-06-20T09:47:58.831Z,23.90
2018-06-20T09:50:35.723Z,23.70
2018-06-20T09:53:07.741Z,23.80
2018-06-20T09:55:39.933Z,24.10
2018-06-20T09:58:11.851Z,24.10
2018-06-20T10:03:25.149Z,24.40
2018-06-20T10:06:02.064Z,24.30
2018-06-20T10:08:38.998Z,24.40
2018-06-20T10:11:16.011Z,24.60
2018-06-20T10:13:49.145Z,24.80
2018-06-20T10:18:52.362Z,25.20
2018-06-20T10:21:24.407Z,25.10
2018-06-20T10:23:56.362Z,24.80
2018-06-20T10:31:31.001Z,25.40
2018-06-20T10:34:03.027Z,25.30
2018-06-20T10:36:35.101Z,25.20
2018-06-20T10:39:10.595Z,25.20
2018-06-20T10:41:42.598Z,25.40
2018-06-20T10:44:15.776Z,25.30
2018-06-20T10:46:52.662Z,25.50
2018-06-20T10:49:24.673Z,25.70
2018-06-20T10:51:56.651Z,25.90
2018-06-20T10:54:28.796Z,26.10
2018-06-20T10:57:05.530Z,26.00
2018-06-20T10:59:42.415Z,26.10
2018-06-20T11:02:19.434Z,26.10
2018-06-20T11:04:56.376Z,26.30
2018-06-20T11:07:33.203Z,26.20
2018-06-20T11:10:10.227Z,26.30
2018-06-20T11:13:16.359Z,26.50
2018-06-20T11:15:48.335Z,26.40
2018-06-20T11:18:20.283Z,26.90
2018-06-20T11:20:57.301Z,26.70
2018-06-20T11:23:29.520Z,26.90
2018-06-20T11:26:01.475Z,26.70
2018-06-20T11:28:33.394Z,26.90
2018-06-20T11:31:07.764Z,27.10
2018-06-20T11:33:42.511Z,27.20
2018-06-20T11:36:14.452Z,27.20
2018-06-20T11:38:46.325Z,27.40
2018-06-20T11:41:18.325Z,27.60
2018-06-20T11:43:50.992Z,27.50
2018-06-20T11:46:28.841Z,27.50
2018-06-20T11:49:00.859Z,27.70
2018-06-20T11:51:33.375Z,27.80
2018-06-20T11:54:09.888Z,27.70
2018-06-20T11:59:18.147Z,28.00
2018-06-20T12:01:55.077Z,28.10
2018-06-20T12:04:32.140Z,28.10
2018-06-20T12:07:09.108Z,28.20
2018-06-20T12:12:22.173Z,28.20
2018-06-20T12:14:58.987Z,28.40
2018-06-20T12:17:35.931Z,28.50
2018-06-20T12:20:13.055Z,28.40
2018-06-20T12:22:50.052Z,28.50
2018-06-20T12:25:27.166Z,28.30
2018-06-20T12:28:04.099Z,28.50
2018-06-20T12:30:41.124Z,28.60
2018-06-20T12:35:54.990Z,29.10
2018-06-20T12:38:32.027Z,29.20
2018-06-20T12:41:09.004Z,29.20
2018-06-20T12:43:46.465Z,29.10
2018-06-20T12:46:29.033Z,29.00
2018-06-20T12:49:01.573Z,29.40
2018-06-20T12:51:33.475Z,29.00
2018-06-20T12:54:05.914Z,29.30
2018-06-20T12:56:37.822Z,29.20
2018-06-20T12:59:09.672Z,29.20
2018-06-20T13:01:41.475Z,29.50
2018-06-20T13:04:13.753Z,29.30
2018-06-20T13:06:45.583Z,29.20
2018-06-20T13:09:17.460Z,29.50
2018-06-20T13:11:49.248Z,29.40
2018-06-20T13:14:21.147Z,29.60
2018-06-20T13:16:53.822Z,30.00
2018-06-20T13:19:25.849Z,30.20
2018-06-20T13:21:57.715Z,29.60
2018-06-20T13:24:29.577Z,29.90
2018-06-20T13:27:01.378Z,29.80
2018-06-20T13:29:33.251Z,29.70
2018-06-20T13:32:10.226Z,29.80
2018-06-20T13:34:47.128Z,29.60
2018-06-20T13:37:23.884Z,29.80
2018-06-20T13:40:00.892Z,29.90
2018-06-20T13:42:37.754Z,30.00
2018-06-20T13:45:14.730Z,30.10
2018-06-20T13:47:51.656Z,30.10
2018-06-20T13:50:23.646Z,30.10
2018-06-20T13:52:55.537Z,30.10
2018-06-20T13:55:27.402Z,30.10
2018-06-20T13:57:59.161Z,30.20
2018-06-20T14:00:31.033Z,30.40
2018-06-20T14:03:02.826Z,30.20
2018-06-20T14:05:34.780Z,30.00
2018-06-20T14:08:06.662Z,30.20
2018-06-20T14:10:38.633Z,30.10
2018-06-20T14:13:11.393Z,30.30
2018-06-20T14:15:43.488Z,30.30
2018-06-20T14:18:15.767Z,30.50
2018-06-20T14:20:52.857Z,30.20
2018-06-20T14:25:57.675Z,30.40
2018-06-20T14:28:30.269Z,30.30
2018-06-20T14:31:07.214Z,30.30
2018-06-20T14:33:43.994Z,30.70
2018-06-20T14:36:22.358Z,30.80
2018-06-20T14:39:00.202Z,30.30
2018-06-20T14:41:36.073Z,30.50
2018-06-20T14:44:09.909Z,30.50
2018-06-20T14:46:41.994Z,30.50
2018-06-20T14:49:14.078Z,30.70
2018-06-20T14:51:46.273Z,30.30
2018-06-20T14:54:18.530Z,30.60
2018-06-20T14:56:51.025Z,30.80
2018-06-20T14:59:23.727Z,30.50
2018-06-20T15:01:56.319Z,30.20
2018-06-20T15:04:29.385Z,30.40
2018-06-20T15:07:01.737Z,30.70
2018-06-20T15:09:33.890Z,30.70
2018-06-20T15:12:06.239Z,30.70
2018-06-20T15:14:38.465Z,30.40
2018-06-20T15:17:15.895Z,30.70
2018-06-20T15:19:49.079Z,30.80
2018-06-20T15:22:21.889Z,30.60
2018-06-20T15:24:54.799Z,30.80
2018-06-20T15:30:08.194Z,31.60
2018-06-20T15:32:45.359Z,30.90
2018-06-20T15:35:22.543Z,30.80
2018-06-20T15:37:59.673Z,31.10
2018-06-20T15:40:31.594Z,31.00
2018-06-20T15:43:03.687Z,30.80
2018-06-20T15:45:39.872Z,30.90
2018-06-20T15:48:11.927Z,30.50
2018-06-20T15:50:43.899Z,30.70
2018-06-20T15:53:15.952Z,30.70
2018-06-20T15:55:47.857Z,30.60
2018-06-20T15:58:19.843Z,30.60
2018-06-20T16:00:52.203Z,30.40
2018-06-20T16:03:24.191Z,30.50
2018-06-20T16:05:56.173Z,30.20
2018-06-20T16:08:28.145Z,30.40
2018-06-20T16:11:00.638Z,30.50
2018-06-20T16:13:32.533Z,30.20
2018-06-20T16:16:04.616Z,30.00
2018-06-20T16:18:36.893Z,30.10
2018-06-20T16:21:13.873Z,30.40
2018-06-20T16:26:27.382Z,30.20
2018-06-20T16:29:04.979Z,30.70
2018-06-20T16:31:36.895Z,30.00
2018-06-20T16:34:08.938Z,30.20
2018-06-20T16:36:40.868Z,29.90
2018-06-20T16:39:12.923Z,30.00
2018-06-20T16:41:44.839Z,29.50
2018-06-20T16:44:16.812Z,30.20
2018-06-20T16:46:48.715Z,30.30
2018-06-20T16:49:20.791Z,29.40
2018-06-20T16:51:53.815Z,29.60
2018-06-20T16:56:57.189Z,30.00
2018-06-20T16:59:29.202Z,30.10
2018-06-20T17:02:06.286Z,29.90
2018-06-20T17:04:38.217Z,30.10
2018-06-20T17:07:11.556Z,30.00
2018-06-20T17:09:43.611Z,29.70
2018-06-20T17:12:20.727Z,29.40
2018-06-20T17:14:57.712Z,29.80
2018-06-20T17:17:34.689Z,29.70
2018-06-20T17:20:11.673Z,30.40
2018-06-20T17:22:48.451Z,29.80
2018-06-20T17:25:24.267Z,29.70
2018-06-20T17:27:56.312Z,29.30
2018-06-20T17:30:28.173Z,29.30
2018-06-20T17:33:00.034Z,29.30
2018-06-20T17:35:31.935Z,28.50
2018-06-20T17:38:04.454Z,27.90
2018-06-20T17:40:36.712Z,27.50
2018-06-20T17:43:08.507Z,27.40
2018-06-20T17:45:41.923Z,27.10
2018-06-20T17:48:14.502Z,27.10
2018-06-20T17:50:46.777Z,26.70
2018-06-20T17:55:49.820Z,26.40
2018-06-20T17:58:21.673Z,26.30
2018-06-20T18:01:09.153Z,26.20
2018-06-20T18:03:42.938Z,26.30
2018-06-20T18:06:19.857Z,26.20
2018-06-20T18:08:57.535Z,26.10
2018-06-20T18:14:11.138Z,25.90
2018-06-20T18:16:48.092Z,25.80
2018-06-20T18:19:19.900Z,25.70
2018-06-20T18:21:51.948Z,25.80
2018-06-20T18:24:23.776Z,25.60
2018-06-20T18:26:56.363Z,25.60
2018-06-20T18:29:28.220Z,25.30
2018-06-20T18:32:00.093Z,25.20
2018-06-20T18:34:32.137Z,25.10
2018-06-20T18:37:04.003Z,25.10
2018-06-20T18:39:41.275Z,25.30
2018-06-20T18:42:13.311Z,25.20
2018-06-20T18:44:45.180Z,25.00
2018-06-20T18:47:22.195Z,25.00
2018-06-20T18:49:54.654Z,25.00
2018-06-20T18:52:26.472Z,24.80
2018-06-20T18:54:58.496Z,24.90
2018-06-20T18:57:35.267Z,24.80
2018-06-20T19:00:13.875Z,24.80
2018-06-20T19:02:50.826Z,25.00
2018-06-20T19:06:27.308Z,24.70
2018-06-20T19:09:02.077Z,24.50
2018-06-20T19:11:33.916Z,24.40
2018-06-20T19:14:05.794Z,24.60
2018-06-20T19:16:37.582Z,24.70
2018-06-20T19:19:09.452Z,24.60
2018-06-20T19:21:41.407Z,24.40
2018-06-20T19:24:14.094Z,24.40
2018-06-20T19:26:46.035Z,24.40
2018-06-20T19:31:49.119Z,24.30
2018-06-20T19:36:52.687Z,24.30
2018-06-20T19:39:29.659Z,23.80
2018-06-20T19:42:01.464Z,23.70
2018-06-20T19:44:34.409Z,23.80
2018-06-20T19:47:07.275Z,23.70
2018-06-20T19:49:39.227Z,23.90
2018-06-20T19:52:11.064Z,23.80
2018-06-20T19:57:14.451Z,23.10
2018-06-20T19:59:46.276Z,23.10
2018-06-20T20:02:24.905Z,23.30
2018-06-20T20:04:56.816Z,23.10
2018-06-20T20:07:28.708Z,23.10
2018-06-20T20:10:00.468Z,23.30
2018-06-20T20:12:32.536Z,23.30
2018-06-20T20:15:04.435Z,23.20
2018-06-20T20:17:36.247Z,23.30
2018-06-20T20:20:09.306Z,23.20
2018-06-20T20:22:41.146Z,23.30
2018-06-20T20:25:13.234Z,23.00
2018-06-20T20:27:45.020Z,22.80
2018-06-20T20:30:16.988Z,23.00
2018-06-20T20:32:48.796Z,23.10
2018-06-20T20:35:20.734Z,23.10
2018-06-20T20:37:52.507Z,22.80
2018-06-20T20:40:24.378Z,22.90
2018-06-20T20:42:56.197Z,23.10
2018-06-20T20:47:59.215Z,22.80
2018-06-20T20:53:02.494Z,22.70
2018-06-20T20:55:35.268Z,22.70
2018-06-20T20:58:07.114Z,22.60
2018-06-20T21:00:39.069Z,22.40
2018-06-20T21:03:11.060Z,22.30
2018-06-20T21:05:42.916Z,22.60
2018-06-20T21:08:14.706Z,22.40
2018-06-20T21:10:46.600Z,22.20
2018-06-20T21:13:18.624Z,21.80
2018-06-20T21:15:50.524Z,21.70
2018-06-20T21:18:22.411Z,21.40
2018-06-20T21:20:54.280Z,21.40
2018-06-20T21:23:26.054Z,21.60
2018-06-20T21:25:58.006Z,21.70
2018-06-20T21:28:29.849Z,21.90
2018-06-20T21:31:01.711Z,21.60
2018-06-20T21:33:33.459Z,21.60
2018-06-20T21:36:05.460Z,21.90
2018-06-20T21:38:37.253Z,21.70
2018-06-20T21:41:09.072Z,21.30
2018-06-20T21:43:40.947Z,21.40
2018-06-20T21:48:43.880Z,21.10
2018-06-20T21:51:15.799Z,20.80
2018-06-20T21:53:47.641Z,20.60
2018-06-20T21:56:19.476Z,20.90
2018-06-20T21:58:51.456Z,21.00
2018-06-20T22:01:24.444Z,21.00
2018-06-20T22:03:56.308Z,21.00
2018-06-20T22:08:59.308Z,21.00
2018-06-20T22:11:37.137Z,20.90
2018-06-20T22:14:10.093Z,20.60
2018-06-20T22:16:41.918Z,20.30
2018-06-20T22:19:13.681Z,20.60
2018-06-20T22:21:45.538Z,20.60
2018-06-20T22:24:17.686Z,20.70
2018-06-20T22:26:49.552Z,20.50
2018-06-20T22:29:21.386Z,20.80
2018-06-20T22:31:53.716Z,20.30
2018-06-20T22:34:25.507Z,19.90
2018-06-20T22:36:57.362Z,20.00
2018-06-20T22:39:29.263Z,20.30
2018-06-20T22:42:01.092Z,20.10
2018-06-20T22:44:32.889Z,20.10
2018-06-20T22:47:04.754Z,19.90
2018-06-20T22:49:36.583Z,19.90
2018-06-20T22:52:08.441Z,19.70
2018-06-20T22:57:11.404Z,19.80
2018-06-20T22:59:43.194Z,19.60
2018-06-20T23:02:15.023Z,19.60
2018-06-20T23:04:46.796Z,19.60
2018-06-20T23:07:18.645Z,19.60
2018-06-20T23:09:50.495Z,19.40
2018-06-20T23:12:22.309Z,19.40
2018-06-20T23:14:54.056Z,19.30
2018-06-20T23:17:25.876Z,19.20
2018-06-20T23:19:57.633Z,19.50
2018-06-20T23:22:29.411Z,19.50
2018-06-20T23:25:01.210Z,19.50
2018-06-20T23:27:33.061Z,19.50
2018-06-20T23:30:06.467Z,19.60
2018-06-20T23:32:38.326Z,19.50
2018-06-20T23:35:11.051Z,19.50
2018-06-20T23:37:43.194Z,19.40
2018-06-20T23:40:14.964Z,19.20
2018-06-20T23:42:46.763Z,19.20
2018-06-20T23:45:18.530Z,19.00
2018-06-20T23:47:50.307Z,19.00
2018-06-20T23:50:22.031Z,19.30
2018-06-20T23:52:53.796Z,19.40
2018-06-20T23:55:25.631Z,19.30
2018-06-20T23:57:57.456Z,19.40
